Storm Events Database

Event Details

Event Hail
Magnitude 1.00 in.
State MISSISSIPPI
County/Area SMITH
WFO JAN
Begin Date 03/29/2011 20:07:00 CST-6
Begin Range 0
Begin Azimuth N
Begin Location PINEVILLE
Begin Lat/Lon 32.13/-89.4
End Date 03/29/2011 20:07:00 CST-6
Deaths Direct/Indirect 0/0 (fatality details below, when available...)
Injuries Direct/Indirect 0/0
Property Damage 0.00K
Crop Damage 0.00K
Episode Narrative An area of low pressure developed over southeast Louisiana and moved east along a warm front which stretched across southeast Mississippi. This eventually caused a strong cold front to sweep through the region with numerous showers and thunderstorms. This storm system combined with cold temperatures aloft and triggered severe storms that produced quite a bit of hail along with some scattered reports of wind damage. Multiple reports of golf ball sized hail occurred with the largest hail size being tennis ball size. The most intense storm occurred over central sections of Mississippi, roughly across northeast Copiah County and northwest Simpson County. Here, a very intense downburst occurred with winds up to 110 mph which downed dozens of trees. Large hail was wind driven and many trees were stripped of there leaves. Outside of the severe storms, several storms moved over the same locations which resulted in heavy rainfall which led to some flash flooding generally within the I-20 corridor.
Event Narrative Quarter size hail fell in Pineville.


All events for this episode:

Location County/Zone St. Date Time T.Z. Type Mag Dth Inj PrD CrD
Totals: 0 0 1.962M 0.00K
YAZOO CITY BARRIER A YAZOO CO. MS 03/29/2011 05:05 CST-6 Lightning 0 0 100.00K 0.00K
CASEYVILLE LINCOLN CO. MS 03/29/2011 17:37 CST-6 Hail 1.00 in. 0 0 0.00K 0.00K
PEETSVILLE COPIAH CO. MS 03/29/2011 17:43 CST-6 Hail 1.75 in. 0 0 0.00K 0.00K
DIVIDE LAWRENCE CO. MS 03/29/2011 18:00 CST-6 Hail 1.75 in. 0 0 0.00K 0.00K
CRYSTAL SPGS COPIAH CO. MS 03/29/2011 18:25 CST-6 Hail 1.75 in. 0 0 0.00K 0.00K
GALLOWAY CLAIBORNE CO. MS 03/29/2011 18:30 CST-6 Hail 1.75 in. 0 0 0.00K 0.00K
ALLEN WARREN CO. MS 03/29/2011 18:30 CST-6 Hail 1.75 in. 0 0 0.00K 0.00K
MANCURE HINDS CO. MS 03/29/2011 18:35 CST-6 Hail 1.75 in. 0 0 0.00K 0.00K
OAKLAWN CLAIBORNE CO. MS 03/29/2011 18:40 CST-6 Thunderstorm Wind 50 kts. EG 0 0 6.00K 0.00K
WHITES RANKIN CO. MS 03/29/2011 18:43 CST-6 Hail 1.75 in. 0 0 75.00K 0.00K
RUBY COPIAH CO. MS 03/29/2011 19:00 CST-6 Hail 2.25 in. 0 0 50.00K 0.00K
RUBY COPIAH CO. MS 03/29/2011 19:07 CST-6 Thunderstorm Wind 50 kts. EG 0 0 25.00K 0.00K
GATESVILLE COPIAH CO. MS 03/29/2011 19:15 CST-6 Hail 1.25 in. 0 0 0.00K 0.00K
HOPEWELL COPIAH CO. MS 03/29/2011 19:15 CST-6 Thunderstorm Wind 52 kts. EG 0 0 0.00K 0.00K
CAILE SUNFLOWER CO. MS 03/29/2011 19:24 CST-6 Hail 1.00 in. 0 0 0.00K 0.00K
LEARNED HINDS CO. MS 03/29/2011 19:26 CST-6 Thunderstorm Wind 50 kts. EG 0 0 50.00K 0.00K
LEARNED HINDS CO. MS 03/29/2011 19:28 CST-6 Hail 1.75 in. 0 0 50.00K 0.00K
LILLIAN SCOTT CO. MS 03/29/2011 19:29 CST-6 Hail 1.50 in. 0 0 25.00K 0.00K
WALNUT GROVE LEAKE CO. MS 03/29/2011 19:38 CST-6 Hail 1.50 in. 0 0 30.00K 0.00K
NOGAN HINDS CO. MS 03/29/2011 19:50 CST-6 Thunderstorm Wind 50 kts. EG 0 0 20.00K 0.00K
PLAIN RANKIN CO. MS 03/29/2011 19:52 CST-6 Thunderstorm Wind 50 kts. EG 0 0 0.00K 0.00K
NOGAN HINDS CO. MS 03/29/2011 20:00 CST-6 Flash Flood 0 0 5.00K 0.00K
FLOWOOD RANKIN CO. MS 03/29/2011 20:00 CST-6 Hail 1.00 in. 0 0 0.00K 0.00K
PINEVILLE SMITH CO. MS 03/29/2011 20:07 CST-6 Hail 1.00 in. 0 0 0.00K 0.00K
EDINBURG LEAKE CO. MS 03/29/2011 20:10 CST-6 Thunderstorm Wind 50 kts. EG 0 0 1.00K 0.00K
CRYSTAL SPGS COPIAH CO. MS 03/29/2011 20:16 CST-6 Hail 2.50 in. 0 0 25.00K 0.00K
EDINBURG LEAKE CO. MS 03/29/2011 20:18 CST-6 Lightning 0 0 5.00K 0.00K
CRYSTAL SPGS COPIAH CO. MS 03/29/2011 20:20 CST-6 Thunderstorm Wind 78 kts. EG 0 0 500.00K 0.00K
GREENWOOD LEFLORE CO. MS 03/29/2011 20:23 CST-6 Hail 1.00 in. 0 0 20.00K 0.00K
TERRY HINDS CO. MS 03/29/2011 20:25 CST-6 Thunderstorm Wind 65 kts. EG 0 0 250.00K 0.00K
PHILADELPHIA NESHOBA CO. MS 03/29/2011 20:25 CST-6 Hail 1.00 in. 0 0 0.00K 0.00K
VALUE RANKIN CO. MS 03/29/2011 20:25 CST-6 Flash Flood 0 0 10.00K 0.00K
PEARL SIMPSON CO. MS 03/29/2011 20:30 CST-6 Hail 1.75 in. 0 0 75.00K 0.00K
PEARL SIMPSON CO. MS 03/29/2011 20:40 CST-6 Thunderstorm Wind 96 kts. EG 0 0 500.00K 0.00K
BOW SPGS GRENADA CO. MS 03/29/2011 20:55 CST-6 Hail 1.00 in. 0 0 0.00K 0.00K
GROVETON SCOTT CO. MS 03/29/2011 21:01 CST-6 Flash Flood 0 0 100.00K 0.00K
STEENS LOWNDES CO. MS 03/29/2011 21:13 CST-6 Hail 1.00 in. 0 0 0.00K 0.00K
LANGFORD RANKIN CO. MS 03/29/2011 22:00 CST-6 Flash Flood 0 0 15.00K 0.00K
GRAND GULF CLAIBORNE CO. MS 03/29/2011 22:30 CST-6 Flash Flood 0 0 5.00K 0.00K
CRYSTAL SPGS COPIAH CO. MS 03/29/2011 23:30 CST-6 Flash Flood 0 0 20.00K 0.00K
Totals: 0 0 1.962M 0.00K